createdAt,value
2022-09-06T00:01:23.350Z,96400.72
2022-09-06T00:03:51.683Z,96397.88
2022-09-06T00:06:21.195Z,96389.69
2022-09-06T00:08:49.709Z,96387.66
2022-09-06T00:11:18.695Z,96388.56
2022-09-06T00:13:48.595Z,96384.63
2022-09-06T00:16:18.697Z,96387.94
2022-09-06T00:18:47.316Z,96387.06
2022-09-06T00:21:17.814Z,96391.56
2022-09-06T00:23:45.682Z,96393.16
2022-09-06T00:26:13.755Z,96401.91
2022-09-06T00:28:41.927Z,96406.47
2022-09-06T00:31:12.919Z,96403.38
2022-09-06T00:33:41.385Z,96405.22
2022-09-06T00:36:10.080Z,96411.03
2022-09-06T00:38:38.296Z,96409.22
2022-09-06T00:41:07.471Z,96406.72
2022-09-06T00:43:35.371Z,96415.09
2022-09-06T00:46:04.177Z,96408.38
2022-09-06T00:48:33.873Z,96414.97
2022-09-06T00:51:05.067Z,96416.38
2022-09-06T00:53:33.555Z,96415.69
2022-09-06T00:56:04.796Z,96399.22
2022-09-06T00:58:32.799Z,96410.13
2022-09-06T01:01:01.195Z,96417.28
2022-09-06T01:03:29.295Z,96415.22
2022-09-06T01:06:06.780Z,96413.28
2022-09-06T01:08:50.185Z,96417.94
2022-09-06T01:11:40.953Z,96413.16
2022-09-06T01:14:20.841Z,96407.16
2022-09-06T01:16:56.192Z,96409.09
2022-09-06T01:19:56.219Z,96406.59
2022-09-06T01:22:47.597Z,96402.38
2022-09-06T01:25:34.589Z,96399.53
2022-09-06T01:28:25.785Z,96400.44
2022-09-06T01:31:01.667Z,96404.44
2022-09-06T01:33:38.707Z,96405.22
2022-09-06T01:36:12.238Z,96410.00
2022-09-06T01:38:40.198Z,96411.69
2022-09-06T01:41:08.997Z,96411.47
2022-09-06T01:43:42.302Z,96412.97
2022-09-06T01:46:17.736Z,96414.06
2022-09-06T01:49:01.739Z,96414.19
2022-09-06T01:51:36.330Z,96422.69
2022-09-06T01:54:25.598Z,96425.63
2022-09-06T01:57:04.631Z,96427.91
2022-09-06T01:59:49.405Z,96424.72
2022-09-06T02:02:24.498Z,96424.84
2022-09-06T02:04:56.055Z,96424.72
2022-09-06T02:07:27.962Z,96432.44
2022-09-06T02:10:00.753Z,96426.88
2022-09-06T02:12:32.643Z,96434.38
2022-09-06T02:15:07.120Z,96425.19
2022-09-06T02:17:40.541Z,96430.63
2022-09-06T02:20:12.612Z,96422.00
2022-09-06T02:22:45.076Z,96438.09
2022-09-06T02:25:19.568Z,96426.09
2022-09-06T02:27:47.543Z,96432.91
2022-09-06T02:30:17.034Z,96432.13
2022-09-06T02:32:51.543Z,96421.69
2022-09-06T02:35:19.460Z,96429.53
2022-09-06T02:37:47.450Z,96438.72
2022-09-06T02:40:15.448Z,96429.28
2022-09-06T02:42:43.293Z,96427.91
2022-09-06T02:45:11.691Z,96416.53
2022-09-06T02:47:40.875Z,96430.47
2022-09-06T02:50:09.626Z,96425.59
2022-09-06T02:52:37.426Z,96429.09
2022-09-06T02:55:06.046Z,96425.59
2022-09-06T02:57:33.879Z,96419.66
2022-09-06T03:00:01.692Z,96423.00
2022-09-06T03:02:29.499Z,96414.25
2022-09-06T03:04:58.675Z,96416.06
2022-09-06T03:07:26.661Z,96414.47
2022-09-06T03:09:56.733Z,96414.59
2022-09-06T03:12:24.556Z,96412.47
2022-09-06T03:14:54.971Z,96408.94
2022-09-06T03:17:23.220Z,96402.00
2022-09-06T03:19:51.072Z,96404.94
2022-09-06T03:22:20.898Z,96416.06
2022-09-06T03:24:49.104Z,96418.06
2022-09-06T03:27:17.025Z,96416.66
2022-09-06T03:29:44.956Z,96412.50
2022-09-06T03:32:12.786Z,96408.19
2022-09-06T03:34:40.541Z,96403.97
2022-09-06T03:37:08.796Z,96401.69
2022-09-06T03:39:38.035Z,96401.03
2022-09-06T03:42:06.029Z,96389.66
2022-09-06T03:44:34.036Z,96397.31
2022-09-06T03:47:01.892Z,96393.66
2022-09-06T03:49:29.754Z,96388.22
2022-09-06T03:51:57.606Z,96394.91
2022-09-06T03:54:25.587Z,96380.63
2022-09-06T03:56:54.737Z,96388.13
2022-09-06T03:59:22.499Z,96384.25
2022-09-06T04:01:50.324Z,96387.97
2022-09-06T04:04:18.135Z,96386.56
2022-09-06T04:06:46.002Z,96396.22
2022-09-06T04:09:15.345Z,96391.69
2022-09-06T04:11:45.135Z,96389.09
2022-09-06T04:14:14.543Z,96400.31
2022-09-06T04:16:42.434Z,96401.50
2022-09-06T04:19:10.305Z,96408.28
2022-09-06T04:21:38.715Z,96407.59
2022-09-06T04:24:06.942Z,96412.16
2022-09-06T04:26:34.846Z,96419.38
2022-09-06T04:29:02.744Z,96419.38
2022-09-06T04:31:31.984Z,96415.19
2022-09-06T04:33:59.855Z,96424.81
2022-09-06T04:36:27.679Z,96421.41
2022-09-06T04:38:55.815Z,96422.53
2022-09-06T04:41:23.674Z,96429.56
2022-09-06T04:43:51.500Z,96439.00
2022-09-06T04:46:22.601Z,96435.34
2022-09-06T04:48:53.059Z,96445.44
2022-09-06T04:51:21.560Z,96452.31
2022-09-06T04:53:49.787Z,96452.94
2022-09-06T04:56:20.840Z,96448.41
2022-09-06T04:58:49.900Z,96445.16
2022-09-06T05:01:18.325Z,96453.25
2022-09-06T05:03:46.229Z,96446.47
2022-09-06T05:06:20.777Z,96441.31
2022-09-06T05:08:49.395Z,96449.72
2022-09-06T05:11:17.347Z,96446.34
2022-09-06T05:13:46.692Z,96463.72
2022-09-06T05:16:14.906Z,96468.50
2022-09-06T05:18:42.767Z,96461.63
2022-09-06T05:21:10.690Z,96476.94
2022-09-06T05:23:39.871Z,96494.22
2022-09-06T05:26:07.809Z,96506.13
2022-09-06T05:28:36.110Z,96509.22
2022-09-06T05:31:08.772Z,96511.06
2022-09-06T05:33:36.600Z,96527.13
2022-09-06T05:36:05.103Z,96520.69
2022-09-06T05:38:33.176Z,96515.38
2022-09-06T05:41:02.626Z,96516.53
2022-09-06T05:43:30.523Z,96528.63
2022-09-06T05:45:58.426Z,96527.38
2022-09-06T05:48:26.386Z,96506.25
2022-09-06T05:51:01.428Z,96504.06
2022-09-06T05:53:38.024Z,96494.84
2022-09-06T05:56:10.579Z,96485.66
2022-09-06T05:58:38.953Z,96502.56
2022-09-06T06:01:09.884Z,96498.97
2022-09-06T06:03:38.936Z,96509.16
2022-09-06T06:06:10.399Z,96491.22
2022-09-06T06:08:38.273Z,96505.66
2022-09-06T06:11:07.527Z,96504.53
2022-09-06T06:13:39.390Z,96502.94
2022-09-06T06:16:07.922Z,96501.91
2022-09-06T06:18:35.747Z,96497.38
2022-09-06T06:21:11.701Z,96507.69
2022-09-06T06:23:39.708Z,96515.88
2022-09-06T06:26:10.010Z,96500.91
2022-09-06T06:28:38.325Z,96501.09
2022-09-06T06:31:07.004Z,96516.81
2022-09-06T06:33:36.285Z,96513.28
2022-09-06T06:36:06.900Z,96514.19
2022-09-06T06:38:37.341Z,96526.00
2022-09-06T06:41:11.289Z,96532.25
2022-09-06T06:43:39.067Z,96524.50
2022-09-06T06:46:08.531Z,96526.22
2022-09-06T06:48:37.143Z,96533.72
2022-09-06T06:51:05.439Z,96529.84
2022-09-06T06:53:33.811Z,96525.75
2022-09-06T06:56:01.876Z,96517.00
2022-09-06T06:58:31.992Z,96511.84
2022-09-06T07:00:59.938Z,96500.31
2022-09-06T07:03:27.825Z,96499.50
2022-09-06T07:06:12.008Z,96499.94
2022-09-06T07:08:41.291Z,96501.59
2022-09-06T07:11:11.038Z,96500.72
2022-09-06T07:13:40.386Z,96511.50
2022-09-06T07:16:09.872Z,96503.03
2022-09-06T07:18:41.923Z,96510.38
2022-09-06T07:24:06.544Z,96510.13
2022-09-06T07:26:36.162Z,96515.84
2022-09-06T07:29:06.991Z,96511.28
2022-09-06T07:34:25.221Z,96518.47
2022-09-06T07:36:53.981Z,96513.50
2022-09-06T07:39:22.185Z,96514.47
2022-09-06T07:41:50.057Z,96514.84
2022-09-06T07:44:19.442Z,96510.53
2022-09-06T07:46:47.523Z,96523.88
2022-09-06T07:49:15.443Z,96513.50
2022-09-06T07:51:43.263Z,96516.19
2022-09-06T07:54:29.901Z,96509.78
2022-09-06T07:56:58.510Z,96521.03
2022-09-06T07:59:27.718Z,96524.91
2022-09-06T08:01:55.636Z,96529.50
2022-09-06T08:04:23.530Z,96529.41
2022-09-06T08:09:41.099Z,96530.19
2022-09-06T08:12:09.796Z,96532.22
2022-09-06T08:14:39.062Z,96534.94
2022-09-06T08:17:07.107Z,96531.25
2022-09-06T08:19:35.555Z,96541.25
2022-09-06T08:22:03.756Z,96528.41
2022-09-06T08:24:32.784Z,96539.56
2022-09-06T08:27:00.652Z,96538.84
2022-09-06T08:29:28.525Z,96529.19
2022-09-06T08:31:57.840Z,96530.53
2022-09-06T08:34:26.232Z,96528.38
2022-09-06T08:36:54.182Z,96530.84
2022-09-06T08:39:21.989Z,96541.56
2022-09-06T08:41:55.022Z,96544.34
2022-09-06T08:47:15.704Z,96529.56
2022-09-06T08:49:46.135Z,96519.47
2022-09-06T08:52:30.004Z,96510.88
2022-09-06T08:55:11.721Z,96512.06
2022-09-06T08:57:53.204Z,96507.00
2022-09-06T09:00:23.080Z,96508.13
2022-09-06T09:02:56.266Z,96496.00
2022-09-06T09:05:27.247Z,96496.06
2022-09-06T09:08:06.585Z,96488.97
2022-09-06T09:10:42.459Z,96488.72
2022-09-06T09:13:19.808Z,96478.59
2022-09-06T09:15:47.723Z,96480.19
2022-09-06T09:18:21.535Z,96480.63
2022-09-06T09:20:49.455Z,96478.25
2022-09-06T09:23:17.483Z,96482.97
2022-09-06T09:25:46.788Z,96469.59
2022-09-06T09:28:18.808Z,96473.53
2022-09-06T09:30:49.841Z,96470.72
2022-09-06T09:33:31.232Z,96463.97
2022-09-06T09:36:01.155Z,96458.38
2022-09-06T09:38:31.500Z,96459.59
2022-09-06T09:41:02.638Z,96447.03
2022-09-06T09:43:32.620Z,96454.47
2022-09-06T09:46:17.101Z,96450.09
2022-09-06T09:49:02.045Z,96444.06
2022-09-06T09:51:31.481Z,96454.28
2022-09-06T09:54:01.020Z,96459.44
2022-09-06T09:56:36.879Z,96446.81
2022-09-06T09:59:16.685Z,96448.31
2022-09-06T10:01:44.810Z,96442.00
2022-09-06T10:07:11.027Z,96449.91
2022-09-06T10:09:42.515Z,96448.59
2022-09-06T10:12:17.394Z,96441.66
2022-09-06T10:14:47.119Z,96445.38
2022-09-06T10:17:28.939Z,96441.06
2022-09-06T10:20:01.558Z,96436.59
2022-09-06T10:22:31.128Z,96433.50
2022-09-06T10:25:22.257Z,96427.19
2022-09-06T10:28:11.281Z,96430.66
2022-09-06T10:30:45.925Z,96437.00
2022-09-06T10:33:27.239Z,96437.78
2022-09-06T10:35:58.893Z,96435.00
2022-09-06T10:38:42.921Z,96425.59
2022-09-06T10:41:33.173Z,96425.25
2022-09-06T10:44:12.984Z,96423.44
2022-09-06T10:46:45.620Z,96423.13
2022-09-06T10:49:19.411Z,96421.94
2022-09-06T10:51:53.289Z,96414.13
2022-09-06T10:54:23.800Z,96407.94
2022-09-06T10:56:56.953Z,96401.19
2022-09-06T11:02:13.906Z,96399.06
2022-09-06T11:07:37.947Z,96394.47
2022-09-06T11:10:11.427Z,96392.66
2022-09-06T11:12:43.625Z,96400.91
2022-09-06T11:15:14.483Z,96393.47
2022-09-06T11:17:47.874Z,96401.44
2022-09-06T11:20:21.477Z,96395.69
2022-09-06T11:23:33.801Z,96396.94
2022-09-06T11:26:22.246Z,96403.94
2022-09-06T11:28:54.936Z,96390.72
2022-09-06T11:34:21.726Z,96386.84
2022-09-06T11:36:51.846Z,96384.13
2022-09-06T11:43:03.053Z,96399.81
2022-09-06T11:45:43.275Z,96392.91
2022-09-06T11:48:37.303Z,96390.50
2022-09-06T11:51:10.637Z,96388.28
2022-09-06T11:54:06.359Z,96391.34
2022-09-06T11:56:41.708Z,96388.84
2022-09-06T11:59:24.308Z,96381.44
2022-09-06T12:02:01.635Z,96378.22
2022-09-06T12:05:03.973Z,96370.09
2022-09-06T12:07:32.745Z,96368.63
2022-09-06T12:10:02.303Z,96361.50
2022-09-06T12:12:42.288Z,96363.91
2022-09-06T12:15:26.347Z,96350.16
2022-09-06T12:17:54.544Z,96348.19
2022-09-06T12:20:59.612Z,96346.00
2022-09-06T12:23:42.399Z,96345.47
2022-09-06T12:26:11.750Z,96348.50
2022-09-06T12:28:53.693Z,96348.84
2022-09-06T12:31:37.674Z,96352.19
2022-09-06T12:34:14.907Z,96338.66
2022-09-06T12:36:59.079Z,96340.72
2022-09-06T12:39:26.963Z,96332.50
2022-09-06T12:41:58.342Z,96333.34
2022-09-06T12:44:34.883Z,96339.94
2022-09-06T12:47:08.146Z,96331.84
2022-09-06T12:49:35.953Z,96335.78
2022-09-06T12:52:09.182Z,96328.13
2022-09-06T12:54:48.011Z,96332.69
2022-09-06T12:57:20.302Z,96329.50
2022-09-06T12:59:54.824Z,96327.84
2022-09-06T13:02:30.914Z,96326.34
2022-09-06T13:05:05.393Z,96322.06
2022-09-06T13:07:35.402Z,96317.88
2022-09-06T13:10:04.141Z,96316.66
2022-09-06T13:12:34.982Z,96328.28
2022-09-06T13:15:08.722Z,96324.00
2022-09-06T13:17:38.347Z,96320.09
2022-09-06T13:20:14.349Z,96320.94
2022-09-06T13:22:46.128Z,96322.59
2022-09-06T13:25:25.749Z,96320.13
2022-09-06T13:27:57.749Z,96327.69
2022-09-06T13:30:38.593Z,96320.91
2022-09-06T13:33:08.235Z,96321.88
2022-09-06T13:35:38.997Z,96325.34
2022-09-06T13:38:39.283Z,96319.53
2022-09-06T13:41:13.483Z,96320.06
2022-09-06T13:43:45.913Z,96319.31
2022-09-06T13:46:18.743Z,96319.88
2022-09-06T13:48:46.537Z,96311.19
2022-09-06T13:51:14.325Z,96310.88
2022-09-06T13:53:42.458Z,96305.09
2022-09-06T13:56:11.919Z,96298.56
2022-09-06T13:58:39.876Z,96304.63
2022-09-06T14:01:09.820Z,96300.88
2022-09-06T14:03:42.778Z,96295.81
2022-09-06T14:06:11.129Z,96296.31
2022-09-06T14:09:05.371Z,96295.81
2022-09-06T14:11:27.404Z,96292.69
2022-09-06T14:13:55.255Z,96296.13
2022-09-06T14:16:23.131Z,96300.97
2022-09-06T14:18:53.049Z,96285.06
2022-09-06T14:21:21.248Z,96277.66
2022-09-06T14:23:51.537Z,96281.72
2022-09-06T14:26:20.883Z,96284.69
2022-09-06T14:28:48.993Z,96284.03
2022-09-06T14:31:18.779Z,96279.53
2022-09-06T14:33:46.922Z,96278.06
2022-09-06T14:36:17.353Z,96272.41
2022-09-06T14:38:47.039Z,96272.84
2022-09-06T14:41:17.704Z,96271.75
2022-09-06T14:43:51.256Z,96276.63
2022-09-06T14:46:20.197Z,96272.72
2022-09-06T14:48:48.582Z,96265.53
2022-09-06T14:51:21.980Z,96264.94
2022-09-06T14:53:51.963Z,96272.50
2022-09-06T14:56:22.958Z,96266.69
2022-09-06T14:58:57.113Z,96260.75
2022-09-06T15:01:26.864Z,96256.94
2022-09-06T15:03:57.111Z,96257.03
2022-09-06T15:06:27.850Z,96252.25
2022-09-06T15:08:59.331Z,96249.09
2022-09-06T15:11:34.323Z,96241.94
2022-09-06T15:14:02.813Z,96248.44
2022-09-06T15:16:32.595Z,96248.91
2022-09-06T15:19:02.268Z,96249.31
2022-09-06T15:21:32.926Z,96258.13
2022-09-06T15:24:01.981Z,96261.38
2022-09-06T15:26:31.141Z,96258.59
2022-09-06T15:28:59.004Z,96256.25
2022-09-06T15:31:27.336Z,96257.38
2022-09-06T15:33:55.675Z,96255.38
2022-09-06T15:36:24.039Z,96253.06
2022-09-06T15:38:54.205Z,96245.59
2022-09-06T15:41:25.257Z,96248.81
2022-09-06T15:43:56.609Z,96242.09
2022-09-06T15:46:42.684Z,96237.41
2022-09-06T15:49:12.400Z,96246.69
2022-09-06T15:51:41.968Z,96245.59
2022-09-06T15:54:12.669Z,96240.53
2022-09-06T15:56:39.909Z,96237.47
2022-09-06T15:59:07.846Z,96244.97
2022-09-06T16:01:36.445Z,96239.97
2022-09-06T16:04:06.818Z,96238.06
2022-09-06T16:06:37.557Z,96248.41
2022-09-06T16:09:08.089Z,96236.94
2022-09-06T16:11:38.400Z,96224.28
2022-09-06T16:14:10.448Z,96224.69
2022-09-06T16:16:40.458Z,96216.31
2022-09-06T16:19:08.503Z,96227.81
2022-09-06T16:21:38.529Z,96223.38
2022-09-06T16:24:08.093Z,96218.25
2022-09-06T16:26:39.349Z,96212.72
2022-09-06T16:29:09.550Z,96211.03
2022-09-06T16:31:40.319Z,96208.59
2022-09-06T16:34:08.887Z,96204.72
2022-09-06T16:36:36.866Z,96202.72
2022-09-06T16:39:04.941Z,96196.91
2022-09-06T16:41:35.613Z,96192.59
2022-09-06T16:44:05.052Z,96192.31
2022-09-06T16:46:33.001Z,96189.69
2022-09-06T16:49:02.936Z,96198.91
2022-09-06T16:51:32.178Z,96201.88
2022-09-06T16:54:01.320Z,96194.13
2022-09-06T16:56:33.242Z,96202.97
2022-09-06T16:59:02.700Z,96205.38
2022-09-06T17:01:32.921Z,96200.69
2022-09-06T17:04:02.460Z,96199.59
2022-09-06T17:06:30.952Z,96198.50
2022-09-06T17:08:59.289Z,96203.69
2022-09-06T17:14:29.320Z,96206.63
2022-09-06T17:17:07.271Z,96208.25
2022-09-06T17:19:36.477Z,96209.09
2022-09-06T17:22:04.416Z,96212.66
2022-09-06T17:24:32.387Z,96222.94
2022-09-06T17:27:00.232Z,96214.66
2022-09-06T17:29:28.832Z,96216.28
2022-09-06T17:31:58.168Z,96223.84
2022-09-06T17:34:26.711Z,96214.75
2022-09-06T17:36:54.551Z,96215.16
2022-09-06T17:39:22.474Z,96215.63
2022-09-06T17:41:53.303Z,96203.78
2022-09-06T17:44:22.739Z,96202.22
2022-09-06T17:47:12.104Z,96206.22
2022-09-06T17:49:39.995Z,96207.00
2022-09-06T17:52:07.883Z,96207.38
2022-09-06T17:54:35.695Z,96208.97
2022-09-06T17:57:03.533Z,96208.16
2022-09-06T17:59:35.534Z,96206.97
2022-09-06T18:02:04.414Z,96210.91
2022-09-06T18:04:32.300Z,96217.53
2022-09-06T18:07:01.571Z,96214.34
2022-09-06T18:09:29.440Z,96217.50
2022-09-06T18:11:58.889Z,96214.72
2022-09-06T18:14:28.423Z,96218.25
2022-09-06T18:16:56.472Z,96219.06
2022-09-06T18:19:24.371Z,96225.31
2022-09-06T18:21:52.295Z,96224.91
2022-09-06T18:24:21.714Z,96219.00
2022-09-06T18:26:50.008Z,96218.56
2022-09-06T18:29:18.403Z,96220.50
2022-09-06T18:31:46.297Z,96215.00
2022-09-06T18:34:15.929Z,96222.03
2022-09-06T18:36:43.943Z,96216.03
2022-09-06T18:39:13.135Z,96217.97
2022-09-06T18:41:59.575Z,96213.22
2022-09-06T18:44:32.223Z,96216.34
2022-09-06T18:47:02.016Z,96214.72
2022-09-06T18:49:30.309Z,96208.03
2022-09-06T18:51:58.125Z,96189.91
2022-09-06T18:54:26.070Z,96199.75
2022-09-06T18:56:55.307Z,96201.34
2022-09-06T18:59:23.374Z,96198.94
2022-09-06T19:01:51.544Z,96198.44
2022-09-06T19:04:19.420Z,96203.09
2022-09-06T19:06:47.268Z,96202.63
2022-09-06T19:09:17.126Z,96206.16
2022-09-06T19:11:46.941Z,96201.69
2022-09-06T19:14:16.233Z,96210.56
2022-09-06T19:16:45.201Z,96205.06
2022-09-06T19:19:13.388Z,96208.97
2022-09-06T19:21:42.469Z,96204.25
2022-09-06T19:24:12.480Z,96207.69
2022-09-06T19:26:44.108Z,96207.28
2022-09-06T19:29:15.426Z,96210.03
2022-09-06T19:31:45.708Z,96204.53
2022-09-06T19:34:15.610Z,96198.97
2022-09-06T19:36:44.867Z,96189.50
2022-09-06T19:39:15.681Z,96188.69
2022-09-06T19:41:45.099Z,96189.06
2022-09-06T19:44:13.523Z,96188.28
2022-09-06T19:46:45.935Z,96187.06
2022-09-06T19:49:16.321Z,96194.16
2022-09-06T19:51:46.238Z,96182.69
2022-09-06T19:54:15.310Z,96182.69
2022-09-06T19:56:44.156Z,96186.56
2022-09-06T19:59:13.601Z,96189.13
2022-09-06T20:01:43.982Z,96189.56
2022-09-06T20:04:13.249Z,96189.56
2022-09-06T20:06:42.536Z,96173.00
2022-09-06T20:09:11.874Z,96176.50
2022-09-06T20:11:42.026Z,96179.56
2022-09-06T20:14:10.185Z,96172.72
2022-09-06T20:16:41.758Z,96173.41
2022-09-06T20:19:11.818Z,96171.44
2022-09-06T20:21:39.760Z,96169.03
2022-09-06T20:24:09.422Z,96159.19
2022-09-06T20:26:37.693Z,96151.69
2022-09-06T20:29:06.575Z,96152.13
2022-09-06T20:31:36.323Z,96152.75
2022-09-06T20:34:05.765Z,96155.88
2022-09-06T20:36:33.861Z,96160.91
2022-09-06T20:39:02.075Z,96168.34
2022-09-06T20:41:31.567Z,96156.38
2022-09-06T20:44:01.149Z,96150.88
2022-09-06T20:46:30.804Z,96158.63
2022-09-06T20:49:03.520Z,96157.78
2022-09-06T20:51:32.316Z,96155.75
2022-09-06T20:54:01.540Z,96154.97
2022-09-06T20:56:34.256Z,96154.50
2022-09-06T20:59:03.975Z,96154.34
2022-09-06T21:01:34.640Z,96156.69
2022-09-06T21:04:05.116Z,96161.00
2022-09-06T21:06:35.618Z,96161.38
2022-09-06T21:09:04.499Z,96157.59
2022-09-06T21:11:34.052Z,96156.03
2022-09-06T21:14:02.352Z,96157.56
2022-09-06T21:16:31.341Z,96156.28
2022-09-06T21:19:00.440Z,96158.59
2022-09-06T21:21:29.805Z,96160.88
2022-09-06T21:23:57.840Z,96164.72
2022-09-06T21:26:25.768Z,96162.44
2022-09-06T21:28:55.329Z,96167.91
2022-09-06T21:31:24.772Z,96162.44
2022-09-06T21:33:53.934Z,96160.88
2022-09-06T21:36:25.021Z,96157.28
2022-09-06T21:38:56.135Z,96162.38
2022-09-06T21:41:25.060Z,96166.34
2022-09-06T21:43:56.055Z,96163.94
2022-09-06T21:46:31.719Z,96163.53
2022-09-06T21:49:02.510Z,96166.09
2022-09-06T21:51:30.448Z,96165.81
2022-09-06T21:53:59.556Z,96162.84
2022-09-06T21:56:27.579Z,96167.91
2022-09-06T21:58:58.710Z,96172.72
2022-09-06T22:01:28.618Z,96165.41
2022-09-06T22:03:56.994Z,96164.72
2022-09-06T22:06:28.631Z,96170.97
2022-09-06T22:08:58.194Z,96172.06
2022-09-06T22:11:27.768Z,96177.94
2022-09-06T22:13:59.454Z,96172.16
2022-09-06T22:16:28.475Z,96163.63
2022-09-06T22:18:56.449Z,96171.03
2022-09-06T22:21:24.704Z,96173.94
2022-09-06T22:23:53.888Z,96168.94
2022-09-06T22:26:22.320Z,96164.63
2022-09-06T22:28:54.583Z,96162.66
2022-09-06T22:31:25.233Z,96156.50
2022-09-06T22:33:53.472Z,96158.97
2022-09-06T22:36:23.309Z,96159.84
2022-09-06T22:38:53.063Z,96176.25
2022-09-06T22:41:20.903Z,96168.91
2022-09-06T22:43:48.731Z,96174.38
2022-09-06T22:46:16.660Z,96173.72
2022-09-06T22:48:45.988Z,96167.81
2022-09-06T22:51:13.856Z,96165.94
2022-09-06T22:53:41.712Z,96163.50
2022-09-06T22:56:09.546Z,96163.50
2022-09-06T22:58:37.402Z,96160.03
2022-09-06T23:01:10.334Z,96156.47
2022-09-06T23:03:38.803Z,96157.97
2022-09-06T23:06:08.528Z,96160.41
2022-09-06T23:08:37.829Z,96162.81
2022-09-06T23:11:07.901Z,96160.00
2022-09-06T23:13:36.150Z,96160.03
2022-09-06T23:16:05.998Z,96154.91
2022-09-06T23:18:34.007Z,96147.50
2022-09-06T23:21:10.648Z,96143.75
2022-09-06T23:23:39.519Z,96140.22
2022-09-06T23:26:08.778Z,96141.06
2022-09-06T23:28:37.506Z,96142.28
2022-09-06T23:31:06.590Z,96141.00
2022-09-06T23:33:36.851Z,96136.63
2022-09-06T23:36:05.566Z,96138.66
2022-09-06T23:38:36.127Z,96137.47
2022-09-06T23:41:04.529Z,96139.84
2022-09-06T23:43:32.907Z,96137.16
2022-09-06T23:46:00.973Z,96133.97
2022-09-06T23:48:29.078Z,96125.63
2022-09-06T23:50:57.187Z,96134.69
2022-09-06T23:53:25.282Z,96133.16
2022-09-06T23:55:54.664Z,96131.88
2022-09-06T23:58:22.549Z,96129.59
